EGPN

Dundee Airport

Airport
ICAO code
EGPN
IATA Code
DND
Summary
ICAO Region
EUR
ICAO Territory
Location

, Scotland

Serving
Dundee
Elevation
17 ft
Coordinates
56° 27' 9" N , 3° 1' 33" W
Metar
EGPN 241620Z 10006KT 9999 FEW018 SCT032 15/12 Q1016

Runways

Designator Length Width Surface Rops
10/28 1400 30 ASP Yes/Yes

Airport map

Aerial View

SKYbrary Partners:

Safety knowledge contributed by: